sensor_id;sensor_type;location;lat;lon;timestamp;P1;durP1;ratioP1;P2;durP2;ratioP2
9056;SDS011;4563;54.756;9.400;2023-05-20T00:00:24;5.50;;;1.80;;
9056;SDS011;4563;54.756;9.400;2023-05-20T00:02:51;4.50;;;1.30;;
9056;SDS011;4563;54.756;9.400;2023-05-20T00:05:18;3.17;;;1.40;;
9056;SDS011;4563;54.756;9.400;2023-05-20T00:07:45;6.57;;;1.10;;
9056;SDS011;4563;54.756;9.400;2023-05-20T00:10:12;6.70;;;1.50;;
9056;SDS011;4563;54.756;9.400;2023-05-20T00:12:39;3.03;;;1.20;;
9056;SDS011;4563;54.756;9.400;2023-05-20T00:15:08;4.53;;;1.50;;
9056;SDS011;4563;54.756;9.400;2023-05-20T00:17:36;2.73;;;1.37;;
9056;SDS011;4563;54.756;9.400;2023-05-20T00:20:03;3.90;;;1.23;;
9056;SDS011;4563;54.756;9.400;2023-05-20T00:22:31;4.70;;;1.97;;
9056;SDS011;4563;54.756;9.400;2023-05-20T00:24:58;4.13;;;1.20;;
9056;SDS011;4563;54.756;9.400;2023-05-20T00:27:25;4.33;;;1.87;;
9056;SDS011;4563;54.756;9.400;2023-05-20T00:29:52;2.97;;;1.47;;
9056;SDS011;4563;54.756;9.400;2023-05-20T00:32:20;3.67;;;1.33;;
9056;SDS011;4563;54.756;9.400;2023-05-20T00:34:54;2.60;;;1.10;;
9056;SDS011;4563;54.756;9.400;2023-05-20T00:37:21;3.93;;;1.10;;
9056;SDS011;4563;54.756;9.400;2023-05-20T00:39:48;2.00;;;1.13;;
9056;SDS011;4563;54.756;9.400;2023-05-20T00:42:18;2.70;;;1.03;;
9056;SDS011;4563;54.756;9.400;2023-05-20T00:44:45;2.43;;;1.13;;
9056;SDS011;4563;54.756;9.400;2023-05-20T00:47:12;2.00;;;1.40;;
9056;SDS011;4563;54.756;9.400;2023-05-20T00:49:41;3.57;;;1.50;;
9056;SDS011;4563;54.756;9.400;2023-05-20T00:52:09;1.37;;;1.10;;
9056;SDS011;4563;54.756;9.400;2023-05-20T00:54:36;2.53;;;1.40;;
9056;SDS011;4563;54.756;9.400;2023-05-20T00:57:04;6.63;;;1.90;;
9056;SDS011;4563;54.756;9.400;2023-05-20T00:59:33;3.83;;;1.20;;
9056;SDS011;4563;54.756;9.400;2023-05-20T01:02:01;4.23;;;0.90;;
9056;SDS011;4563;54.756;9.400;2023-05-20T01:04:29;4.03;;;1.47;;
9056;SDS011;4563;54.756;9.400;2023-05-20T01:07:00;2.77;;;1.30;;
9056;SDS011;4563;54.756;9.400;2023-05-20T01:09:29;4.27;;;1.60;;
9056;SDS011;4563;54.756;9.400;2023-05-20T01:11:58;5.23;;;1.63;;
9056;SDS011;4563;54.756;9.400;2023-05-20T01:14:29;3.80;;;1.30;;
9056;SDS011;4563;54.756;9.400;2023-05-20T01:17:01;1.40;;;1.13;;
9056;SDS011;4563;54.756;9.400;2023-05-20T01:19:35;2.67;;;1.03;;
9056;SDS011;4563;54.756;9.400;2023-05-20T01:22:10;2.00;;;1.17;;
9056;SDS011;4563;54.756;9.400;2023-05-20T01:24:39;3.87;;;1.43;;
9056;SDS011;4563;54.756;9.400;2023-05-20T01:27:07;2.33;;;1.00;;
9056;SDS011;4563;54.756;9.400;2023-05-20T01:29:35;6.80;;;1.23;;
9056;SDS011;4563;54.756;9.400;2023-05-20T01:32:04;5.13;;;1.37;;
9056;SDS011;4563;54.756;9.400;2023-05-20T01:34:34;2.10;;;1.30;;
9056;SDS011;4563;54.756;9.400;2023-05-20T01:37:02;4.83;;;1.40;;
9056;SDS011;4563;54.756;9.400;2023-05-20T01:39:31;2.87;;;1.20;;
9056;SDS011;4563;54.756;9.400;2023-05-20T01:42:02;3.93;;;1.63;;
9056;SDS011;4563;54.756;9.400;2023-05-20T01:44:30;2.60;;;1.50;;
9056;SDS011;4563;54.756;9.400;2023-05-20T01:46:58;3.60;;;1.30;;
9056;SDS011;4563;54.756;9.400;2023-05-20T01:49:25;3.67;;;1.10;;
9056;SDS011;4563;54.756;9.400;2023-05-20T01:51:52;1.40;;;1.30;;
9056;SDS011;4563;54.756;9.400;2023-05-20T01:54:19;6.63;;;1.23;;
9056;SDS011;4563;54.756;9.400;2023-05-20T01:56:46;2.47;;;1.50;;
9056;SDS011;4563;54.756;9.400;2023-05-20T01:59:14;2.00;;;1.00;;
9056;SDS011;4563;54.756;9.400;2023-05-20T02:01:41;3.47;;;1.33;;
9056;SDS011;4563;54.756;9.400;2023-05-20T02:04:08;6.13;;;1.50;;
9056;SDS011;4563;54.756;9.400;2023-05-20T02:06:35;2.87;;;1.50;;
9056;SDS011;4563;54.756;9.400;2023-05-20T02:09:02;3.40;;;1.23;;
9056;SDS011;4563;54.756;9.400;2023-05-20T02:11:30;1.33;;;1.23;;
9056;SDS011;4563;54.756;9.400;2023-05-20T02:13:57;4.43;;;1.37;;
9056;SDS011;4563;54.756;9.400;2023-05-20T02:16:25;2.60;;;1.33;;
9056;SDS011;4563;54.756;9.400;2023-05-20T02:18:52;3.57;;;1.70;;
9056;SDS011;4563;54.756;9.400;2023-05-20T02:21:19;3.43;;;1.30;;
9056;SDS011;4563;54.756;9.400;2023-05-20T02:23:46;1.70;;;1.40;;
9056;SDS011;4563;54.756;9.400;2023-05-20T02:26:13;7.13;;;1.30;;
9056;SDS011;4563;54.756;9.400;2023-05-20T02:28:40;1.87;;;1.10;;
9056;SDS011;4563;54.756;9.400;2023-05-20T02:31:10;2.03;;;1.50;;
9056;SDS011;4563;54.756;9.400;2023-05-20T02:33:39;4.77;;;1.43;;
9056;SDS011;4563;54.756;9.400;2023-05-20T02:36:06;4.57;;;1.70;;
9056;SDS011;4563;54.756;9.400;2023-05-20T02:38:33;6.30;;;1.87;;
9056;SDS011;4563;54.756;9.400;2023-05-20T02:41:00;2.10;;;1.70;;
9056;SDS011;4563;54.756;9.400;2023-05-20T02:43:28;4.87;;;1.60;;
9056;SDS011;4563;54.756;9.400;2023-05-20T02:45:55;2.10;;;1.27;;
9056;SDS011;4563;54.756;9.400;2023-05-20T02:48:22;2.00;;;1.40;;
9056;SDS011;4563;54.756;9.400;2023-05-20T02:50:50;3.27;;;1.77;;
9056;SDS011;4563;54.756;9.400;2023-05-20T02:53:18;4.57;;;2.20;;
9056;SDS011;4563;54.756;9.400;2023-05-20T02:55:45;3.83;;;1.90;;
9056;SDS011;4563;54.756;9.400;2023-05-20T02:58:13;2.03;;;1.60;;
9056;SDS011;4563;54.756;9.400;2023-05-20T03:00:40;2.33;;;1.37;;
9056;SDS011;4563;54.756;9.400;2023-05-20T03:03:06;1.97;;;1.60;;
9056;SDS011;4563;54.756;9.400;2023-05-20T03:05:34;2.40;;;1.40;;
9056;SDS011;4563;54.756;9.400;2023-05-20T03:08:05;5.27;;;1.40;;
9056;SDS011;4563;54.756;9.400;2023-05-20T03:10:34;1.73;;;1.00;;
9056;SDS011;4563;54.756;9.400;2023-05-20T03:13:01;2.20;;;1.20;;
9056;SDS011;4563;54.756;9.400;2023-05-20T03:15:32;7.10;;;2.10;;
9056;SDS011;4563;54.756;9.400;2023-05-20T03:17:59;1.73;;;1.20;;
9056;SDS011;4563;54.756;9.400;2023-05-20T03:20:26;1.67;;;1.37;;
9056;SDS011;4563;54.756;9.400;2023-05-20T03:22:54;2.43;;;1.40;;
9056;SDS011;4563;54.756;9.400;2023-05-20T03:25:22;2.13;;;1.57;;
9056;SDS011;4563;54.756;9.400;2023-05-20T03:27:50;2.50;;;1.77;;
9056;SDS011;4563;54.756;9.400;2023-05-20T03:30:16;4.13;;;1.73;;
9056;SDS011;4563;54.756;9.400;2023-05-20T03:32:43;2.73;;;1.73;;
9056;SDS011;4563;54.756;9.400;2023-05-20T03:35:10;2.37;;;1.50;;
9056;SDS011;4563;54.756;9.400;2023-05-20T03:37:37;5.43;;;2.77;;
9056;SDS011;4563;54.756;9.400;2023-05-20T03:40:06;2.17;;;2.03;;
9056;SDS011;4563;54.756;9.400;2023-05-20T03:42:35;1.97;;;1.20;;
9056;SDS011;4563;54.756;9.400;2023-05-20T03:45:03;1.20;;;1.10;;
9056;SDS011;4563;54.756;9.400;2023-05-20T03:47:31;3.17;;;1.30;;
9056;SDS011;4563;54.756;9.400;2023-05-20T03:49:57;4.30;;;1.03;;
9056;SDS011;4563;54.756;9.400;2023-05-20T03:52:24;1.13;;;0.93;;
9056;SDS011;4563;54.756;9.400;2023-05-20T03:54:52;1.87;;;1.20;;
9056;SDS011;4563;54.756;9.400;2023-05-20T03:57:18;1.17;;;1.07;;
9056;SDS011;4563;54.756;9.400;2023-05-20T03:59:47;7.03;;;1.27;;
9056;SDS011;4563;54.756;9.400;2023-05-20T04:02:13;1.03;;;0.97;;
9056;SDS011;4563;54.756;9.400;2023-05-20T04:04:40;4.90;;;1.27;;
9056;SDS011;4563;54.756;9.400;2023-05-20T04:07:07;0.83;;;0.83;;
9056;SDS011;4563;54.756;9.400;2023-05-20T04:09:34;5.03;;;1.23;;
9056;SDS011;4563;54.756;9.400;2023-05-20T04:12:01;2.70;;;1.10;;
9056;SDS011;4563;54.756;9.400;2023-05-20T04:14:28;4.13;;;1.10;;
9056;SDS011;4563;54.756;9.400;2023-05-20T04:16:56;2.30;;;1.00;;
9056;SDS011;4563;54.756;9.400;2023-05-20T04:19:23;2.47;;;0.83;;
9056;SDS011;4563;54.756;9.400;2023-05-20T04:21:52;1.37;;;0.80;;
9056;SDS011;4563;54.756;9.400;2023-05-20T04:24:19;3.40;;;1.23;;
9056;SDS011;4563;54.756;9.400;2023-05-20T04:26:49;1.20;;;1.07;;
9056;SDS011;4563;54.756;9.400;2023-05-20T04:29:16;1.60;;;0.83;;
9056;SDS011;4563;54.756;9.400;2023-05-20T04:31:43;3.37;;;1.07;;
9056;SDS011;4563;54.756;9.400;2023-05-20T04:34:11;1.00;;;0.80;;
9056;SDS011;4563;54.756;9.400;2023-05-20T04:36:38;2.63;;;1.20;;
9056;SDS011;4563;54.756;9.400;2023-05-20T04:39:05;2.27;;;0.77;;
9056;SDS011;4563;54.756;9.400;2023-05-20T04:41:33;2.07;;;0.90;;
9056;SDS011;4563;54.756;9.400;2023-05-20T04:44:00;1.10;;;1.00;;
9056;SDS011;4563;54.756;9.400;2023-05-20T04:46:27;5.13;;;1.00;;
9056;SDS011;4563;54.756;9.400;2023-05-20T04:48:55;1.30;;;0.90;;
9056;SDS011;4563;54.756;9.400;2023-05-20T04:51:23;1.57;;;0.70;;
9056;SDS011;4563;54.756;9.400;2023-05-20T04:53:50;4.97;;;1.00;;
9056;SDS011;4563;54.756;9.400;2023-05-20T04:56:17;1.93;;;0.77;;
9056;SDS011;4563;54.756;9.400;2023-05-20T04:58:44;1.93;;;0.80;;
9056;SDS011;4563;54.756;9.400;2023-05-20T05:01:11;2.90;;;0.80;;
9056;SDS011;4563;54.756;9.400;2023-05-20T05:03:38;1.37;;;0.87;;
9056;SDS011;4563;54.756;9.400;2023-05-20T05:06:05;1.00;;;0.60;;
9056;SDS011;4563;54.756;9.400;2023-05-20T05:08:33;2.33;;;0.80;;
9056;SDS011;4563;54.756;9.400;2023-05-20T05:11:00;0.70;;;0.60;;
9056;SDS011;4563;54.756;9.400;2023-05-20T05:13:27;0.83;;;0.67;;
9056;SDS011;4563;54.756;9.400;2023-05-20T05:15:57;4.20;;;0.70;;
9056;SDS011;4563;54.756;9.400;2023-05-20T05:18:24;2.77;;;0.70;;
9056;SDS011;4563;54.756;9.400;2023-05-20T05:20:57;1.90;;;1.00;;
9056;SDS011;4563;54.756;9.400;2023-05-20T05:23:24;2.97;;;0.40;;
9056;SDS011;4563;54.756;9.400;2023-05-20T05:25:53;1.40;;;0.70;;
9056;SDS011;4563;54.756;9.400;2023-05-20T05:28:20;0.50;;;0.50;;
9056;SDS011;4563;54.756;9.400;2023-05-20T05:30:47;0.73;;;0.40;;
9056;SDS011;4563;54.756;9.400;2023-05-20T05:33:14;5.37;;;0.70;;
9056;SDS011;4563;54.756;9.400;2023-05-20T05:35:41;1.03;;;0.50;;
9056;SDS011;4563;54.756;9.400;2023-05-20T05:38:08;2.40;;;0.53;;
9056;SDS011;4563;54.756;9.400;2023-05-20T05:40:35;1.13;;;0.70;;
9056;SDS011;4563;54.756;9.400;2023-05-20T05:43:03;0.73;;;0.57;;
9056;SDS011;4563;54.756;9.400;2023-05-20T05:45:30;1.40;;;0.50;;
9056;SDS011;4563;54.756;9.400;2023-05-20T05:47:57;1.07;;;0.50;;
9056;SDS011;4563;54.756;9.400;2023-05-20T05:50:24;4.00;;;0.50;;
9056;SDS011;4563;54.756;9.400;2023-05-20T05:52:51;0.40;;;0.40;;
9056;SDS011;4563;54.756;9.400;2023-05-20T05:55:17;0.97;;;0.40;;
9056;SDS011;4563;54.756;9.400;2023-05-20T05:57:44;2.53;;;0.70;;
9056;SDS011;4563;54.756;9.400;2023-05-20T06:00:13;2.17;;;0.70;;
9056;SDS011;4563;54.756;9.400;2023-05-20T06:02:40;1.63;;;0.53;;
9056;SDS011;4563;54.756;9.400;2023-05-20T06:05:07;4.10;;;0.43;;
9056;SDS011;4563;54.756;9.400;2023-05-20T06:07:35;0.57;;;0.43;;
9056;SDS011;4563;54.756;9.400;2023-05-20T06:10:02;0.83;;;0.47;;
9056;SDS011;4563;54.756;9.400;2023-05-20T06:12:29;2.13;;;0.50;;
9056;SDS011;4563;54.756;9.400;2023-05-20T06:14:56;2.63;;;0.60;;
9056;SDS011;4563;54.756;9.400;2023-05-20T06:17:24;1.73;;;0.53;;
9056;SDS011;4563;54.756;9.400;2023-05-20T06:19:51;8.47;;;0.70;;
9056;SDS011;4563;54.756;9.400;2023-05-20T06:22:18;0.73;;;0.40;;
9056;SDS011;4563;54.756;9.400;2023-05-20T06:24:45;3.60;;;0.50;;
9056;SDS011;4563;54.756;9.400;2023-05-20T06:27:12;2.80;;;0.50;;
9056;SDS011;4563;54.756;9.400;2023-05-20T06:29:38;3.30;;;0.50;;
9056;SDS011;4563;54.756;9.400;2023-05-20T06:32:05;1.87;;;0.60;;
9056;SDS011;4563;54.756;9.400;2023-05-20T06:34:34;1.17;;;0.50;;
9056;SDS011;4563;54.756;9.400;2023-05-20T06:37:03;1.13;;;0.47;;
9056;SDS011;4563;54.756;9.400;2023-05-20T06:39:30;0.90;;;0.43;;
9056;SDS011;4563;54.756;9.400;2023-05-20T06:41:56;0.67;;;0.30;;
9056;SDS011;4563;54.756;9.400;2023-05-20T06:44:23;1.33;;;0.40;;
9056;SDS011;4563;54.756;9.400;2023-05-20T06:46:50;2.27;;;0.43;;
9056;SDS011;4563;54.756;9.400;2023-05-20T06:49:17;1.93;;;0.40;;
9056;SDS011;4563;54.756;9.400;2023-05-20T06:51:45;0.67;;;0.60;;
9056;SDS011;4563;54.756;9.400;2023-05-20T06:54:13;1.67;;;0.37;;
9056;SDS011;4563;54.756;9.400;2023-05-20T06:56:40;1.47;;;0.30;;
9056;SDS011;4563;54.756;9.400;2023-05-20T06:59:08;0.33;;;0.30;;
9056;SDS011;4563;54.756;9.400;2023-05-20T07:01:36;1.27;;;0.40;;
9056;SDS011;4563;54.756;9.400;2023-05-20T07:04:03;2.07;;;0.30;;
9056;SDS011;4563;54.756;9.400;2023-05-20T07:06:30;1.73;;;0.30;;
9056;SDS011;4563;54.756;9.400;2023-05-20T07:08:58;1.53;;;0.40;;
9056;SDS011;4563;54.756;9.400;2023-05-20T07:11:25;1.63;;;0.47;;
9056;SDS011;4563;54.756;9.400;2023-05-20T07:13:52;0.60;;;0.40;;
9056;SDS011;4563;54.756;9.400;2023-05-20T07:16:19;0.33;;;0.33;;
9056;SDS011;4563;54.756;9.400;2023-05-20T07:18:46;2.60;;;0.30;;
9056;SDS011;4563;54.756;9.400;2023-05-20T07:21:13;1.27;;;0.30;;
9056;SDS011;4563;54.756;9.400;2023-05-20T07:23:40;0.93;;;0.37;;
9056;SDS011;4563;54.756;9.400;2023-05-20T07:26:08;0.77;;;0.23;;
9056;SDS011;4563;54.756;9.400;2023-05-20T07:28:36;2.20;;;0.40;;
9056;SDS011;4563;54.756;9.400;2023-05-20T07:31:04;2.20;;;0.30;;
9056;SDS011;4563;54.756;9.400;2023-05-20T07:33:31;2.20;;;0.50;;
9056;SDS011;4563;54.756;9.400;2023-05-20T07:35:57;0.10;;;0.10;;
9056;SDS011;4563;54.756;9.400;2023-05-20T07:38:24;1.33;;;0.30;;
9056;SDS011;4563;54.756;9.400;2023-05-20T07:40:51;0.40;;;0.40;;
9056;SDS011;4563;54.756;9.400;2023-05-20T07:43:19;0.37;;;0.30;;
9056;SDS011;4563;54.756;9.400;2023-05-20T07:45:46;0.60;;;0.50;;
9056;SDS011;4563;54.756;9.400;2023-05-20T07:48:13;1.77;;;0.50;;
9056;SDS011;4563;54.756;9.400;2023-05-20T07:50:40;1.87;;;0.40;;
9056;SDS011;4563;54.756;9.400;2023-05-20T07:53:07;1.93;;;0.50;;
9056;SDS011;4563;54.756;9.400;2023-05-20T07:55:34;1.07;;;0.40;;
9056;SDS011;4563;54.756;9.400;2023-05-20T07:58:01;0.30;;;0.30;;
9056;SDS011;4563;54.756;9.400;2023-05-20T08:00:32;1.83;;;0.30;;
9056;SDS011;4563;54.756;9.400;2023-05-20T08:02:59;2.23;;;0.30;;
9056;SDS011;4563;54.756;9.400;2023-05-20T08:05:27;1.10;;;0.60;;
9056;SDS011;4563;54.756;9.400;2023-05-20T08:07:54;1.20;;;0.40;;
9056;SDS011;4563;54.756;9.400;2023-05-20T08:10:21;2.37;;;0.40;;
9056;SDS011;4563;54.756;9.400;2023-05-20T08:12:48;2.17;;;0.50;;
9056;SDS011;4563;54.756;9.400;2023-05-20T08:15:15;4.60;;;0.80;;
9056;SDS011;4563;54.756;9.400;2023-05-20T08:17:43;0.50;;;0.50;;
9056;SDS011;4563;54.756;9.400;2023-05-20T08:20:10;0.63;;;0.40;;
9056;SDS011;4563;54.756;9.400;2023-05-20T08:22:38;0.97;;;0.40;;
9056;SDS011;4563;54.756;9.400;2023-05-20T08:25:07;1.10;;;0.50;;
9056;SDS011;4563;54.756;9.400;2023-05-20T08:27:35;1.13;;;0.60;;
9056;SDS011;4563;54.756;9.400;2023-05-20T08:30:02;1.43;;;0.50;;
9056;SDS011;4563;54.756;9.400;2023-05-20T08:32:31;1.17;;;0.57;;
9056;SDS011;4563;54.756;9.400;2023-05-20T08:35:01;1.10;;;0.40;;
9056;SDS011;4563;54.756;9.400;2023-05-20T08:37:28;3.33;;;0.80;;
9056;SDS011;4563;54.756;9.400;2023-05-20T08:39:55;1.53;;;0.50;;
9056;SDS011;4563;54.756;9.400;2023-05-20T08:42:22;0.93;;;0.50;;
9056;SDS011;4563;54.756;9.400;2023-05-20T08:44:49;1.13;;;0.50;;
9056;SDS011;4563;54.756;9.400;2023-05-20T08:47:18;1.40;;;0.50;;
9056;SDS011;4563;54.756;9.400;2023-05-20T08:49:47;0.47;;;0.47;;
9056;SDS011;4563;54.756;9.400;2023-05-20T08:52:16;0.60;;;0.40;;
9056;SDS011;4563;54.756;9.400;2023-05-20T08:54:46;3.00;;;0.80;;
9056;SDS011;4563;54.756;9.400;2023-05-20T08:57:14;1.13;;;0.30;;
9056;SDS011;4563;54.756;9.400;2023-05-20T08:59:42;1.97;;;0.50;;
9056;SDS011;4563;54.756;9.400;2023-05-20T09:02:10;2.83;;;0.30;;
9056;SDS011;4563;54.756;9.400;2023-05-20T09:04:39;1.03;;;0.47;;
9056;SDS011;4563;54.756;9.400;2023-05-20T09:07:06;3.30;;;0.30;;
9056;SDS011;4563;54.756;9.400;2023-05-20T09:09:34;2.23;;;0.73;;
9056;SDS011;4563;54.756;9.400;2023-05-20T09:12:01;1.83;;;0.47;;
9056;SDS011;4563;54.756;9.400;2023-05-20T09:14:29;6.37;;;0.60;;
9056;SDS011;4563;54.756;9.400;2023-05-20T09:16:55;0.50;;;0.30;;
9056;SDS011;4563;54.756;9.400;2023-05-20T09:19:22;0.43;;;0.30;;
9056;SDS011;4563;54.756;9.400;2023-05-20T09:21:51;0.60;;;0.30;;
9056;SDS011;4563;54.756;9.400;2023-05-20T09:24:19;1.95;;;0.40;;
9056;SDS011;4563;54.756;9.400;2023-05-20T09:26:50;1.77;;;0.30;;
9056;SDS011;4563;54.756;9.400;2023-05-20T09:29:17;0.50;;;0.40;;
9056;SDS011;4563;54.756;9.400;2023-05-20T09:31:51;0.52;;;0.50;;
9056;SDS011;4563;54.756;9.400;2023-05-20T09:34:18;0.60;;;0.40;;
9056;SDS011;4563;54.756;9.400;2023-05-20T09:36:47;0.65;;;0.45;;
9056;SDS011;4563;54.756;9.400;2023-05-20T09:39:16;0.52;;;0.22;;
9056;SDS011;4563;54.756;9.400;2023-05-20T09:41:53;1.10;;;0.40;;
9056;SDS011;4563;54.756;9.400;2023-05-20T09:44:22;0.68;;;0.30;;
9056;SDS011;4563;54.756;9.400;2023-05-20T09:46:50;0.60;;;0.38;;
9056;SDS011;4563;54.756;9.400;2023-05-20T09:49:18;0.45;;;0.40;;
9056;SDS011;4563;54.756;9.400;2023-05-20T09:51:47;1.13;;;0.35;;
9056;SDS011;4563;54.756;9.400;2023-05-20T09:54:16;0.30;;;0.30;;
9056;SDS011;4563;54.756;9.400;2023-05-20T09:56:45;1.30;;;0.40;;
9056;SDS011;4563;54.756;9.400;2023-05-20T09:59:14;2.05;;;0.50;;
9056;SDS011;4563;54.756;9.400;2023-05-20T10:01:41;1.58;;;0.30;;
9056;SDS011;4563;54.756;9.400;2023-05-20T10:04:09;1.80;;;0.30;;
9056;SDS011;4563;54.756;9.400;2023-05-20T10:06:56;2.80;;;0.65;;
9056;SDS011;4563;54.756;9.400;2023-05-20T10:09:41;1.48;;;0.40;;
9056;SDS011;4563;54.756;9.400;2023-05-20T10:12:17;3.65;;;0.50;;
9056;SDS011;4563;54.756;9.400;2023-05-20T10:14:55;3.22;;;0.40;;
9056;SDS011;4563;54.756;9.400;2023-05-20T10:17:30;1.05;;;0.50;;
9056;SDS011;4563;54.756;9.400;2023-05-20T10:20:05;1.48;;;0.50;;
9056;SDS011;4563;54.756;9.400;2023-05-20T10:22:35;3.03;;;0.52;;
9056;SDS011;4563;54.756;9.400;2023-05-20T10:25:03;1.85;;;0.50;;
9056;SDS011;4563;54.756;9.400;2023-05-20T10:27:40;1.38;;;0.60;;
9056;SDS011;4563;54.756;9.400;2023-05-20T10:30:15;1.05;;;0.30;;
9056;SDS011;4563;54.756;9.400;2023-05-20T10:32:50;0.60;;;0.30;;
9056;SDS011;4563;54.756;9.400;2023-05-20T10:35:20;1.35;;;0.50;;
9056;SDS011;4563;54.756;9.400;2023-05-20T10:37:50;3.35;;;0.50;;
9056;SDS011;4563;54.756;9.400;2023-05-20T10:40:18;2.25;;;0.50;;
9056;SDS011;4563;54.756;9.400;2023-05-20T10:42:45;5.78;;;0.70;;
9056;SDS011;4563;54.756;9.400;2023-05-20T10:45:24;0.80;;;0.70;;
9056;SDS011;4563;54.756;9.400;2023-05-20T10:47:54;0.57;;;0.40;;
9056;SDS011;4563;54.756;9.400;2023-05-20T10:50:25;1.08;;;0.40;;
9056;SDS011;4563;54.756;9.400;2023-05-20T10:52:53;0.70;;;0.50;;
9056;SDS011;4563;54.756;9.400;2023-05-20T10:55:21;1.25;;;0.45;;
9056;SDS011;4563;54.756;9.400;2023-05-20T10:57:48;1.33;;;0.47;;
9056;SDS011;4563;54.756;9.400;2023-05-20T11:00:16;1.63;;;0.52;;
9056;SDS011;4563;54.756;9.400;2023-05-20T11:02:46;1.95;;;0.40;;
9056;SDS011;4563;54.756;9.400;2023-05-20T11:05:14;1.08;;;0.60;;
9056;SDS011;4563;54.756;9.400;2023-05-20T11:07:42;1.85;;;0.63;;
9056;SDS011;4563;54.756;9.400;2023-05-20T11:10:10;2.70;;;0.40;;
9056;SDS011;4563;54.756;9.400;2023-05-20T11:12:37;2.33;;;0.90;;
9056;SDS011;4563;54.756;9.400;2023-05-20T11:15:05;3.40;;;0.60;;
9056;SDS011;4563;54.756;9.400;2023-05-20T11:17:33;1.20;;;0.65;;
9056;SDS011;4563;54.756;9.400;2023-05-20T11:20:01;0.82;;;0.60;;
9056;SDS011;4563;54.756;9.400;2023-05-20T11:22:28;1.45;;;0.43;;
9056;SDS011;4563;54.756;9.400;2023-05-20T11:24:55;10.45;;;0.50;;
9056;SDS011;4563;54.756;9.400;2023-05-20T11:27:22;0.50;;;0.50;;
9056;SDS011;4563;54.756;9.400;2023-05-20T11:29:49;3.13;;;0.65;;
9056;SDS011;4563;54.756;9.400;2023-05-20T11:32:18;1.33;;;0.60;;
9056;SDS011;4563;54.756;9.400;2023-05-20T11:34:45;1.48;;;0.50;;
9056;SDS011;4563;54.756;9.400;2023-05-20T11:37:17;1.45;;;0.43;;
9056;SDS011;4563;54.756;9.400;2023-05-20T11:39:45;1.08;;;0.50;;
9056;SDS011;4563;54.756;9.400;2023-05-20T11:42:13;2.20;;;0.50;;
9056;SDS011;4563;54.756;9.400;2023-05-20T11:44:41;0.77;;;0.50;;
9056;SDS011;4563;54.756;9.400;2023-05-20T11:47:09;1.77;;;0.60;;
9056;SDS011;4563;54.756;9.400;2023-05-20T11:49:38;1.85;;;0.63;;
9056;SDS011;4563;54.756;9.400;2023-05-20T11:52:06;1.17;;;0.60;;
9056;SDS011;4563;54.756;9.400;2023-05-20T11:54:36;10.27;;;0.60;;
9056;SDS011;4563;54.756;9.400;2023-05-20T11:57:03;0.80;;;0.50;;
9056;SDS011;4563;54.756;9.400;2023-05-20T11:59:34;2.58;;;0.55;;
9056;SDS011;4563;54.756;9.400;2023-05-20T12:02:04;0.55;;;0.50;;
9056;SDS011;4563;54.756;9.400;2023-05-20T12:04:32;2.42;;;0.88;;
9056;SDS011;4563;54.756;9.400;2023-05-20T12:06:58;2.28;;;0.50;;
9056;SDS011;4563;54.756;9.400;2023-05-20T12:09:28;2.88;;;0.70;;
9056;SDS011;4563;54.756;9.400;2023-05-20T12:11:57;1.98;;;0.50;;
9056;SDS011;4563;54.756;9.400;2023-05-20T12:14:23;1.83;;;0.77;;
9056;SDS011;4563;54.756;9.400;2023-05-20T12:16:50;3.35;;;0.65;;
9056;SDS011;4563;54.756;9.400;2023-05-20T12:19:17;3.47;;;0.93;;
9056;SDS011;4563;54.756;9.400;2023-05-20T12:21:44;1.10;;;0.55;;
9056;SDS011;4563;54.756;9.400;2023-05-20T12:24:11;0.95;;;0.60;;
9056;SDS011;4563;54.756;9.400;2023-05-20T12:26:38;4.18;;;0.77;;
9056;SDS011;4563;54.756;9.400;2023-05-20T12:29:06;8.05;;;0.88;;
9056;SDS011;4563;54.756;9.400;2023-05-20T12:31:33;0.75;;;0.50;;
9056;SDS011;4563;54.756;9.400;2023-05-20T12:34:00;5.10;;;0.82;;
9056;SDS011;4563;54.756;9.400;2023-05-20T12:36:27;0.50;;;0.50;;
9056;SDS011;4563;54.756;9.400;2023-05-20T12:38:54;0.55;;;0.50;;
9056;SDS011;4563;54.756;9.400;2023-05-20T12:41:21;3.83;;;0.57;;
9056;SDS011;4563;54.756;9.400;2023-05-20T12:43:47;7.57;;;1.05;;
9056;SDS011;4563;54.756;9.400;2023-05-20T12:46:17;3.65;;;0.50;;
9056;SDS011;4563;54.756;9.400;2023-05-20T12:48:44;1.20;;;0.55;;
9056;SDS011;4563;54.756;9.400;2023-05-20T12:51:10;2.40;;;0.50;;
9056;SDS011;4563;54.756;9.400;2023-05-20T12:53:37;0.43;;;0.43;;
9056;SDS011;4563;54.756;9.400;2023-05-20T12:56:04;1.83;;;0.60;;
9056;SDS011;4563;54.756;9.400;2023-05-20T12:58:31;1.17;;;0.40;;
9056;SDS011;4563;54.756;9.400;2023-05-20T13:00:58;1.70;;;0.60;;
9056;SDS011;4563;54.756;9.400;2023-05-20T13:03:26;0.75;;;0.50;;
9056;SDS011;4563;54.756;9.400;2023-05-20T13:05:53;0.50;;;0.50;;
9056;SDS011;4563;54.756;9.400;2023-05-20T13:08:20;1.98;;;0.68;;
9056;SDS011;4563;54.756;9.400;2023-05-20T13:10:47;2.40;;;0.40;;
9056;SDS011;4563;54.756;9.400;2023-05-20T13:13:14;0.60;;;0.40;;
9056;SDS011;4563;54.756;9.400;2023-05-20T13:15:45;1.13;;;0.60;;
9056;SDS011;4563;54.756;9.400;2023-05-20T13:18:12;1.75;;;0.45;;
9056;SDS011;4563;54.756;9.400;2023-05-20T13:20:41;0.80;;;0.60;;
9056;SDS011;4563;54.756;9.400;2023-05-20T13:23:08;1.23;;;0.55;;
9056;SDS011;4563;54.756;9.400;2023-05-20T13:25:36;0.60;;;0.52;;
9056;SDS011;4563;54.756;9.400;2023-05-20T13:28:03;2.05;;;0.45;;
9056;SDS011;4563;54.756;9.400;2023-05-20T13:30:30;2.97;;;0.47;;
9056;SDS011;4563;54.756;9.400;2023-05-20T13:32:58;2.23;;;0.47;;
9056;SDS011;4563;54.756;9.400;2023-05-20T13:35:25;2.13;;;0.50;;
9056;SDS011;4563;54.756;9.400;2023-05-20T13:37:53;1.27;;;0.40;;
9056;SDS011;4563;54.756;9.400;2023-05-20T13:40:20;0.97;;;0.33;;
9056;SDS011;4563;54.756;9.400;2023-05-20T13:42:47;2.87;;;0.40;;
9056;SDS011;4563;54.756;9.400;2023-05-20T13:45:15;0.47;;;0.43;;
9056;SDS011;4563;54.756;9.400;2023-05-20T13:47:42;1.43;;;0.50;;
9056;SDS011;4563;54.756;9.400;2023-05-20T13:50:09;0.43;;;0.30;;
9056;SDS011;4563;54.756;9.400;2023-05-20T13:52:36;4.20;;;0.70;;
9056;SDS011;4563;54.756;9.400;2023-05-20T13:55:05;0.60;;;0.30;;
9056;SDS011;4563;54.756;9.400;2023-05-20T13:57:33;2.20;;;0.50;;
9056;SDS011;4563;54.756;9.400;2023-05-20T14:00:00;3.30;;;0.40;;
9056;SDS011;4563;54.756;9.400;2023-05-20T14:02:27;6.83;;;0.60;;
9056;SDS011;4563;54.756;9.400;2023-05-20T14:04:53;3.00;;;0.57;;
9056;SDS011;4563;54.756;9.400;2023-05-20T14:07:20;1.47;;;0.53;;
9056;SDS011;4563;54.756;9.400;2023-05-20T14:09:47;2.63;;;0.50;;
9056;SDS011;4563;54.756;9.400;2023-05-20T14:12:15;2.37;;;0.50;;
9056;SDS011;4563;54.756;9.400;2023-05-20T14:14:42;4.53;;;0.50;;
9056;SDS011;4563;54.756;9.400;2023-05-20T14:17:09;7.80;;;0.70;;
9056;SDS011;4563;54.756;9.400;2023-05-20T14:19:36;1.43;;;0.83;;
9056;SDS011;4563;54.756;9.400;2023-05-20T14:22:03;2.17;;;0.40;;
9056;SDS011;4563;54.756;9.400;2023-05-20T14:24:30;0.73;;;0.40;;
9056;SDS011;4563;54.756;9.400;2023-05-20T14:26:57;0.43;;;0.33;;
9056;SDS011;4563;54.756;9.400;2023-05-20T14:29:25;2.53;;;0.40;;
9056;SDS011;4563;54.756;9.400;2023-05-20T14:31:52;1.20;;;0.70;;
9056;SDS011;4563;54.756;9.400;2023-05-20T14:34:19;0.60;;;0.30;;
9056;SDS011;4563;54.756;9.400;2023-05-20T14:36:46;0.40;;;0.33;;
9056;SDS011;4563;54.756;9.400;2023-05-20T14:39:13;2.77;;;0.60;;
9056;SDS011;4563;54.756;9.400;2023-05-20T14:41:41;7.47;;;0.53;;
9056;SDS011;4563;54.756;9.400;2023-05-20T14:44:08;0.80;;;0.50;;
9056;SDS011;4563;54.756;9.400;2023-05-20T14:46:39;0.50;;;0.40;;
9056;SDS011;4563;54.756;9.400;2023-05-20T14:49:06;3.43;;;0.70;;
9056;SDS011;4563;54.756;9.400;2023-05-20T14:51:32;2.90;;;1.07;;
9056;SDS011;4563;54.756;9.400;2023-05-20T14:53:59;5.30;;;0.87;;
9056;SDS011;4563;54.756;9.400;2023-05-20T14:56:26;5.47;;;0.50;;
9056;SDS011;4563;54.756;9.400;2023-05-20T14:58:53;1.47;;;0.57;;
9056;SDS011;4563;54.756;9.400;2023-05-20T15:01:20;2.83;;;0.50;;
9056;SDS011;4563;54.756;9.400;2023-05-20T15:03:48;0.70;;;0.50;;
9056;SDS011;4563;54.756;9.400;2023-05-20T15:06:15;0.60;;;0.40;;
9056;SDS011;4563;54.756;9.400;2023-05-20T15:08:42;2.07;;;0.47;;
9056;SDS011;4563;54.756;9.400;2023-05-20T15:11:09;2.07;;;0.30;;
9056;SDS011;4563;54.756;9.400;2023-05-20T15:13:36;0.33;;;0.30;;
9056;SDS011;4563;54.756;9.400;2023-05-20T15:16:04;0.50;;;0.40;;
9056;SDS011;4563;54.756;9.400;2023-05-20T15:18:32;2.20;;;0.40;;